BOX193 EGNX-EDDP
Flight info
| Callsign | BOX193 |
|---|---|
| Flight time | N/A |
| Altitude | 31000 |
| Route | SAPCO UY53 DTY P166 BANTO P155 SIVDA P137 REDFA DCT TACHA DCT BATEL DCT LEGDA DCT DIBDO Z20 KENIG T959 KOJEC KOJEC1V |
| Aircraft | B77L/H-SDE1E2E3FGHIJ2J3J4J5M1RWXY/LB1D1 |
Departure
| Time | 2026-05-06 16:54 |
|---|---|
| Airport | East Midlands Airport (EGNX) |
Arrival
| Time | N/A |
|---|---|
| Airport | Leipzig/Halle Airport (EDDP) |
| Time | Latitude | Longitude | Altitude | Speed | Heading |
|---|---|---|---|---|---|
| 2026-05-06 15:46 | 52.82747 | -1.34868 | 308 ft | 0 kts | 178° |
| 2026-05-06 16:43 | 52.82750 | -1.34868 | 277 ft | 3 kts | 178° |
| 2026-05-06 16:43 | 52.82776 | -1.34869 | 305 ft | 4 kts | 178° |
| 2026-05-06 16:43 | 52.82788 | -1.34870 | 305 ft | 0 kts | 177° |
| 2026-05-06 16:46 | 52.82781 | -1.34877 | 305 ft | 2 kts | 214° |
| 2026-05-06 16:47 | 52.82782 | -1.34901 | 307 ft | 2 kts | 295° |
| 2026-05-06 16:47 | 52.82797 | -1.34937 | 306 ft | 5 kts | 304° |
| 2026-05-06 16:47 | 52.82818 | -1.34999 | 308 ft | 7 kts | 291° |
| 2026-05-06 16:47 | 52.82821 | -1.35145 | 308 ft | 21 kts | 269° |
| 2026-05-06 16:48 | 52.82838 | -1.35237 | 308 ft | 10 kts | 309° |
| 2026-05-06 16:48 | 52.82888 | -1.35187 | 311 ft | 10 kts | 74° |
| 2026-05-06 16:48 | 52.82895 | -1.35067 | 308 ft | 11 kts | 85° |
| 2026-05-06 16:48 | 52.82913 | -1.34954 | 312 ft | 11 kts | 39° |
| 2026-05-06 16:49 | 52.82936 | -1.34941 | 311 ft | 0 kts | 7° |
| 2026-05-06 16:50 | 52.82936 | -1.34942 | 311 ft | 0 kts | 7° |
| 2026-05-06 16:50 | 52.82975 | -1.34936 | 311 ft | 9 kts | 1° |
| 2026-05-06 16:51 | 52.83037 | -1.34933 | 311 ft | 9 kts | 4° |
| 2026-05-06 16:51 | 52.83062 | -1.34849 | 310 ft | 8 kts | 87° |
| 2026-05-06 16:51 | 52.83063 | -1.34846 | 309 ft | 0 kts | 87° |
| 2026-05-06 16:53 | 52.83063 | -1.34839 | 309 ft | 7 kts | 87° |
| 2026-05-06 16:53 | 52.83073 | -1.34367 | 307 ft | 76 kts | 88° |
| 2026-05-06 16:53 | 52.83095 | -1.33160 | 314 ft | 133 kts | 89° |
| 2026-05-06 16:53 | 52.83133 | -1.31353 | 389 ft | 168 kts | 85° |
| 2026-05-06 16:54 | 52.83149 | -1.29413 | 805 ft | 176 kts | 91° |
| 2026-05-06 16:54 | 52.82982 | -1.27406 | 1410 ft | 176 kts | 95° |
| 2026-05-06 16:54 | 52.82801 | -1.25341 | 1898 ft | 180 kts | 91° |
| 2026-05-06 16:54 | 52.82530 | -1.23296 | 2359 ft | 188 kts | 110° |
| 2026-05-06 16:55 | 52.81762 | -1.21505 | 2872 ft | 194 kts | 130° |
| 2026-05-06 16:55 | 52.80823 | -1.19955 | 3341 ft | 196 kts | 131° |
| 2026-05-06 16:55 | 52.79850 | -1.18298 | 3646 ft | 210 kts | 131° |
| 2026-05-06 16:55 | 52.78766 | -1.16449 | 3865 ft | 232 kts | 132° |
| 2026-05-06 16:56 | 52.77464 | -1.14730 | 4107 ft | 247 kts | 143° |
| 2026-05-06 16:56 | 52.76222 | -1.12728 | 4505 ft | 254 kts | 124° |
| 2026-05-06 16:56 | 52.75209 | -1.10313 | 5000 ft | 265 kts | 121° |
| 2026-05-06 16:56 | 52.74187 | -1.07757 | 5701 ft | 268 kts | 122° |
| 2026-05-06 16:57 | 52.73140 | -1.05185 | 6376 ft | 272 kts | 123° |
| 2026-05-06 16:57 | 52.72057 | -1.02604 | 7052 ft | 275 kts | 124° |
| 2026-05-06 16:57 | 52.70939 | -0.99999 | 7698 ft | 280 kts | 125° |
| 2026-05-06 16:57 | 52.69804 | -0.97405 | 8464 ft | 281 kts | 125° |
| 2026-05-06 16:58 | 52.68640 | -0.94779 | 9073 ft | 288 kts | 125° |
| 2026-05-06 16:58 | 52.67438 | -0.92091 | 9725 ft | 291 kts | 126° |
| 2026-05-06 16:58 | 52.66202 | -0.89342 | 10227 ft | 301 kts | 126° |
| 2026-05-06 16:58 | 52.64926 | -0.86519 | 10437 ft | 323 kts | 126° |
| 2026-05-06 16:59 | 52.63535 | -0.83450 | 10571 ft | 346 kts | 126° |
| 2026-05-06 16:59 | 52.62046 | -0.80174 | 10777 ft | 368 kts | 126° |
| 2026-05-06 16:59 | 52.60482 | -0.76750 | 11276 ft | 380 kts | 126° |
| 2026-05-06 16:59 | 52.58901 | -0.73291 | 11931 ft | 388 kts | 127° |
| 2026-05-06 17:00 | 52.57276 | -0.69746 | 12867 ft | 390 kts | 127° |
| 2026-05-06 17:00 | 52.55648 | -0.66195 | 13580 ft | 398 kts | 127° |
| 2026-05-06 17:00 | 52.53975 | -0.62553 | 14337 ft | 402 kts | 127° |
| 2026-05-06 17:00 | 52.52315 | -0.58944 | 15029 ft | 408 kts | 127° |
| 2026-05-06 17:01 | 52.50611 | -0.55243 | 15811 ft | 411 kts | 127° |
| 2026-05-06 17:01 | 52.48884 | -0.51500 | 16520 ft | 416 kts | 127° |
| 2026-05-06 17:01 | 52.47134 | -0.47712 | 17202 ft | 421 kts | 128° |
| 2026-05-06 17:01 | 52.45355 | -0.43865 | 17995 ft | 424 kts | 128° |
| 2026-05-06 17:02 | 52.43568 | -0.40006 | 18684 ft | 427 kts | 128° |
| 2026-05-06 17:02 | 52.41773 | -0.36134 | 19213 ft | 433 kts | 128° |
| 2026-05-06 17:02 | 52.39934 | -0.32176 | 19842 ft | 437 kts | 128° |
| 2026-05-06 17:02 | 52.38106 | -0.28197 | 20443 ft | 438 kts | 125° |
| 2026-05-06 17:03 | 52.36649 | -0.23811 | 20948 ft | 445 kts | 111° |
| 2026-05-06 17:03 | 52.35815 | -0.18965 | 21557 ft | 449 kts | 99° |
| 2026-05-06 17:03 | 52.35583 | -0.13853 | 22178 ft | 452 kts | 89° |
| 2026-05-06 17:03 | 52.35651 | -0.08694 | 22753 ft | 456 kts | 89° |
| 2026-05-06 17:04 | 52.35663 | -0.03500 | 23303 ft | 460 kts | 90° |
| 2026-05-06 17:04 | 52.35618 | 0.01764 | 23805 ft | 465 kts | 92° |
| 2026-05-06 17:04 | 52.35334 | 0.07040 | 24288 ft | 467 kts | 98° |
| 2026-05-06 17:04 | 52.34867 | 0.12161 | 24781 ft | 470 kts | 99° |
| 2026-05-06 17:05 | 52.34367 | 0.17526 | 25277 ft | 473 kts | 99° |
| 2026-05-06 17:05 | 52.33871 | 0.22853 | 25739 ft | 476 kts | 99° |
| 2026-05-06 17:05 | 52.33376 | 0.28228 | 26191 ft | 480 kts | 99° |
| 2026-05-06 17:05 | 52.32883 | 0.33634 | 26640 ft | 483 kts | 99° |
| 2026-05-06 17:06 | 52.32388 | 0.39094 | 27098 ft | 486 kts | 99° |
| 2026-05-06 17:06 | 52.31893 | 0.44553 | 27542 ft | 489 kts | 99° |
| 2026-05-06 17:06 | 52.31391 | 0.50069 | 27977 ft | 492 kts | 99° |
| 2026-05-06 17:06 | 52.30888 | 0.55578 | 28406 ft | 495 kts | 99° |
| 2026-05-06 17:07 | 52.30375 | 0.61164 | 28824 ft | 498 kts | 99° |
| 2026-05-06 17:07 | 52.29858 | 0.66755 | 29216 ft | 501 kts | 99° |
| 2026-05-06 17:07 | 52.29335 | 0.72379 | 29651 ft | 502 kts | 99° |
| 2026-05-06 17:07 | 52.28808 | 0.78017 | 30165 ft | 501 kts | 99° |
| 2026-05-06 17:08 | 52.28459 | 0.81738 | 30496 ft | 500 kts | 99° |
| 2026-05-06 17:08 | 52.27914 | 0.87509 | 30959 ft | 498 kts | 99° |
| 2026-05-06 17:09 | 52.26853 | 0.98664 | 30968 ft | 496 kts | 99° |
| 2026-05-06 17:09 | 52.25789 | 1.09742 | 30966 ft | 494 kts | 99° |
| 2026-05-06 17:10 | 52.24715 | 1.20812 | 30967 ft | 493 kts | 99° |
| 2026-05-06 17:10 | 52.23630 | 1.31870 | 30976 ft | 493 kts | 99° |
| 2026-05-06 17:11 | 52.22540 | 1.42873 | 30976 ft | 494 kts | 99° |
| 2026-05-06 17:11 | 52.21434 | 1.53936 | 30977 ft | 494 kts | 100° |
| 2026-05-06 17:12 | 52.20318 | 1.64985 | 30971 ft | 494 kts | 100° |
| 2026-05-06 17:12 | 52.19191 | 1.76041 | 30976 ft | 494 kts | 100° |
| 2026-05-06 17:13 | 52.18055 | 1.87066 | 30975 ft | 494 kts | 100° |
| 2026-05-06 17:13 | 52.16908 | 1.98101 | 30965 ft | 494 kts | 101° |
| 2026-05-06 17:14 | 52.15751 | 2.09134 | 30960 ft | 494 kts | 101° |
| 2026-05-06 17:14 | 52.14585 | 2.20142 | 30958 ft | 493 kts | 101° |
| 2026-05-06 17:15 | 52.13412 | 2.31128 | 30966 ft | 493 kts | 101° |
| 2026-05-06 17:15 | 52.12273 | 2.42130 | 30951 ft | 493 kts | 97° |
| 2026-05-06 17:16 | 52.12472 | 2.53226 | 30957 ft | 495 kts | 82° |
| 2026-05-06 17:16 | 52.14249 | 2.63990 | 30957 ft | 496 kts | 72° |
| 2026-05-06 17:17 | 52.16372 | 2.74699 | 30957 ft | 497 kts | 73° |
| 2026-05-06 17:17 | 52.18432 | 2.85444 | 30944 ft | 497 kts | 73° |
| 2026-05-06 17:18 | 52.20442 | 2.96201 | 30938 ft | 496 kts | 73° |
| 2026-05-06 17:18 | 52.22443 | 3.06987 | 30943 ft | 497 kts | 73° |
| 2026-05-06 17:19 | 52.24427 | 3.17711 | 30950 ft | 498 kts | 73° |
| 2026-05-06 17:19 | 52.26025 | 3.28631 | 30939 ft | 498 kts | 83° |
| 2026-05-06 17:20 | 52.26777 | 3.39884 | 30941 ft | 499 kts | 85° |
| 2026-05-06 17:20 | 52.27495 | 3.51152 | 30932 ft | 499 kts | 85° |
| 2026-05-06 17:21 | 52.28234 | 3.62403 | 30923 ft | 498 kts | 84° |
| 2026-05-06 17:21 | 52.28984 | 3.73646 | 30921 ft | 498 kts | 85° |
| 2026-05-06 17:22 | 52.29726 | 3.84859 | 30918 ft | 498 kts | 85° |
| 2026-05-06 17:22 | 52.30459 | 3.96117 | 30917 ft | 499 kts | 85° |
| 2026-05-06 17:23 | 52.31176 | 4.07330 | 30928 ft | 497 kts | 85° |
| 2026-05-06 17:23 | 52.31878 | 4.18487 | 30922 ft | 495 kts | 85° |
| 2026-05-06 17:24 | 52.32571 | 4.29671 | 30920 ft | 494 kts | 85° |
| 2026-05-06 17:24 | 52.33251 | 4.40807 | 30923 ft | 493 kts | 85° |
| 2026-05-06 17:25 | 52.33922 | 4.51970 | 30921 ft | 494 kts | 86° |
| 2026-05-06 17:25 | 52.34579 | 4.63097 | 30922 ft | 494 kts | 85° |
| 2026-05-06 17:26 | 52.35230 | 4.74293 | 30917 ft | 495 kts | 85° |
| 2026-05-06 17:26 | 52.35873 | 4.85521 | 30911 ft | 495 kts | 85° |
| 2026-05-06 17:27 | 52.36503 | 4.96733 | 30912 ft | 495 kts | 85° |
| 2026-05-06 17:27 | 52.37014 | 5.05960 | 30910 ft | 495 kts | 86° |
| 2026-05-06 17:28 | 52.37624 | 5.17162 | 30915 ft | 494 kts | 86° |
| 2026-05-06 17:28 | 52.38223 | 5.28354 | 30911 ft | 493 kts | 86° |
| 2026-05-06 17:29 | 52.38794 | 5.39215 | 30915 ft | 493 kts | 86° |
| 2026-05-06 17:29 | 52.39371 | 5.50392 | 30911 ft | 493 kts | 86° |
| 2026-05-06 17:30 | 52.39938 | 5.61560 | 30909 ft | 492 kts | 86° |
| 2026-05-06 17:30 | 52.40490 | 5.72664 | 30914 ft | 492 kts | 86° |
| 2026-05-06 17:31 | 52.41034 | 5.83836 | 30911 ft | 493 kts | 86° |
| 2026-05-06 17:31 | 52.41570 | 5.95029 | 30909 ft | 493 kts | 86° |
| 2026-05-06 17:32 | 52.42094 | 6.06225 | 30903 ft | 492 kts | 86° |
| 2026-05-06 17:32 | 52.42607 | 6.17401 | 30901 ft | 492 kts | 86° |
| 2026-05-06 17:33 | 52.43109 | 6.28563 | 30901 ft | 491 kts | 86° |
| 2026-05-06 17:33 | 52.43600 | 6.39722 | 30900 ft | 491 kts | 86° |
| 2026-05-06 17:34 | 52.44072 | 6.50681 | 30893 ft | 491 kts | 87° |
| 2026-05-06 17:34 | 52.44542 | 6.61835 | 30892 ft | 490 kts | 87° |
| 2026-05-06 17:35 | 52.44995 | 6.72848 | 30894 ft | 490 kts | 87° |
| 2026-05-06 17:35 | 52.45443 | 6.83984 | 30891 ft | 489 kts | 87° |
| 2026-05-06 17:36 | 52.46094 | 7.00641 | 30886 ft | 489 kts | 88° |
| 2026-05-06 17:36 | 52.46516 | 7.11762 | 30882 ft | 488 kts | 88° |
| 2026-05-06 17:37 | 52.46925 | 7.22850 | 30880 ft | 487 kts | 88° |
| 2026-05-06 17:37 | 52.47323 | 7.33909 | 30884 ft | 486 kts | 88° |
| 2026-05-06 17:38 | 52.47711 | 7.44983 | 30884 ft | 486 kts | 88° |
| 2026-05-06 17:38 | 52.48088 | 7.56046 | 30881 ft | 486 kts | 88° |
| 2026-05-06 17:39 | 52.48449 | 7.66944 | 30886 ft | 487 kts | 88° |
| 2026-05-06 17:39 | 52.48747 | 7.76155 | 30885 ft | 487 kts | 88° |